sensor_id;sensor_type;location;lat;lon;timestamp;P1;durP1;ratioP1;P2;durP2;ratioP2
42912;SDS011;50720;54.324;18.558;2023-06-05T00:01:47;3.53;;;2.20;;
42912;SDS011;50720;54.324;18.558;2023-06-05T00:04:18;5.30;;;1.95;;
42912;SDS011;50720;54.324;18.558;2023-06-05T00:06:49;5.57;;;2.00;;
42912;SDS011;50720;54.324;18.558;2023-06-05T00:09:19;5.22;;;2.08;;
42912;SDS011;50720;54.324;18.558;2023-06-05T00:11:49;3.80;;;2.20;;
42912;SDS011;50720;54.324;18.558;2023-06-05T00:14:20;7.15;;;1.85;;
42912;SDS011;50720;54.324;18.558;2023-06-05T00:16:49;2.50;;;1.63;;
42912;SDS011;50720;54.324;18.558;2023-06-05T00:19:19;4.95;;;2.30;;
42912;SDS011;50720;54.324;18.558;2023-06-05T00:21:50;12.30;;;2.53;;
42912;SDS011;50720;54.324;18.558;2023-06-05T00:24:20;6.45;;;1.90;;
42912;SDS011;50720;54.324;18.558;2023-06-05T00:26:49;4.18;;;2.00;;
42912;SDS011;50720;54.324;18.558;2023-06-05T00:29:19;5.07;;;1.98;;
42912;SDS011;50720;54.324;18.558;2023-06-05T00:31:49;3.95;;;2.15;;
42912;SDS011;50720;54.324;18.558;2023-06-05T00:34:19;7.95;;;2.30;;
42912;SDS011;50720;54.324;18.558;2023-06-05T00:36:49;4.90;;;2.95;;
42912;SDS011;50720;54.324;18.558;2023-06-05T00:39:19;4.63;;;2.13;;
42912;SDS011;50720;54.324;18.558;2023-06-05T00:41:48;5.85;;;2.53;;
42912;SDS011;50720;54.324;18.558;2023-06-05T00:44:18;9.05;;;2.58;;
42912;SDS011;50720;54.324;18.558;2023-06-05T00:46:48;7.72;;;2.75;;
42912;SDS011;50720;54.324;18.558;2023-06-05T00:49:19;4.28;;;2.67;;
42912;SDS011;50720;54.324;18.558;2023-06-05T00:51:50;3.88;;;2.22;;
42912;SDS011;50720;54.324;18.558;2023-06-05T00:54:20;4.55;;;2.58;;
42912;SDS011;50720;54.324;18.558;2023-06-05T00:56:49;5.95;;;2.47;;
42912;SDS011;50720;54.324;18.558;2023-06-05T00:59:21;9.88;;;2.45;;
42912;SDS011;50720;54.324;18.558;2023-06-05T01:01:50;4.20;;;1.80;;
42912;SDS011;50720;54.324;18.558;2023-06-05T01:06:53;7.15;;;1.58;;
42912;SDS011;50720;54.324;18.558;2023-06-05T01:09:24;3.97;;;1.77;;
42912;SDS011;50720;54.324;18.558;2023-06-05T01:14:35;4.95;;;2.60;;
42912;SDS011;50720;54.324;18.558;2023-06-05T01:17:07;5.47;;;3.13;;
42912;SDS011;50720;54.324;18.558;2023-06-05T01:19:38;4.90;;;2.92;;
42912;SDS011;50720;54.324;18.558;2023-06-05T01:22:09;4.53;;;2.90;;
42912;SDS011;50720;54.324;18.558;2023-06-05T01:24:42;7.57;;;3.17;;
42912;SDS011;50720;54.324;18.558;2023-06-05T01:27:12;8.85;;;3.65;;
42912;SDS011;50720;54.324;18.558;2023-06-05T01:29:46;6.38;;;3.70;;
42912;SDS011;50720;54.324;18.558;2023-06-05T01:32:22;8.45;;;3.70;;
42912;SDS011;50720;54.324;18.558;2023-06-05T01:34:57;12.00;;;3.63;;
42912;SDS011;50720;54.324;18.558;2023-06-05T01:37:27;5.85;;;3.75;;
42912;SDS011;50720;54.324;18.558;2023-06-05T01:40:06;4.93;;;3.38;;
42912;SDS011;50720;54.324;18.558;2023-06-05T01:42:39;7.15;;;4.43;;
42912;SDS011;50720;54.324;18.558;2023-06-05T01:45:09;5.60;;;3.83;;
42912;SDS011;50720;54.324;18.558;2023-06-05T01:47:39;7.93;;;4.13;;
42912;SDS011;50720;54.324;18.558;2023-06-05T01:50:09;7.60;;;4.00;;
42912;SDS011;50720;54.324;18.558;2023-06-05T01:52:41;7.57;;;4.13;;
42912;SDS011;50720;54.324;18.558;2023-06-05T01:55:15;6.50;;;3.92;;
42912;SDS011;50720;54.324;18.558;2023-06-05T01:57:47;8.32;;;4.03;;
42912;SDS011;50720;54.324;18.558;2023-06-05T02:00:17;9.18;;;3.90;;
42912;SDS011;50720;54.324;18.558;2023-06-05T02:02:47;8.43;;;3.90;;
42912;SDS011;50720;54.324;18.558;2023-06-05T02:05:18;9.27;;;3.83;;
42912;SDS011;50720;54.324;18.558;2023-06-05T02:07:49;9.30;;;4.78;;
42912;SDS011;50720;54.324;18.558;2023-06-05T02:10:23;8.77;;;3.70;;
42912;SDS011;50720;54.324;18.558;2023-06-05T02:12:53;10.50;;;3.42;;
42912;SDS011;50720;54.324;18.558;2023-06-05T02:15:23;13.85;;;6.43;;
42912;SDS011;50720;54.324;18.558;2023-06-05T02:17:52;19.48;;;8.15;;
42912;SDS011;50720;54.324;18.558;2023-06-05T02:20:23;29.95;;;14.90;;
42912;SDS011;50720;54.324;18.558;2023-06-05T02:22:53;22.48;;;13.80;;
42912;SDS011;50720;54.324;18.558;2023-06-05T02:25:25;10.30;;;5.85;;
42912;SDS011;50720;54.324;18.558;2023-06-05T02:27:55;12.13;;;4.97;;
42912;SDS011;50720;54.324;18.558;2023-06-05T02:30:26;11.07;;;4.68;;
42912;SDS011;50720;54.324;18.558;2023-06-05T02:32:55;8.63;;;5.15;;
42912;SDS011;50720;54.324;18.558;2023-06-05T02:35:29;8.02;;;5.00;;
42912;SDS011;50720;54.324;18.558;2023-06-05T02:37:58;13.75;;;4.35;;
42912;SDS011;50720;54.324;18.558;2023-06-05T02:40:31;8.15;;;4.07;;
42912;SDS011;50720;54.324;18.558;2023-06-05T02:43:00;14.55;;;4.55;;
42912;SDS011;50720;54.324;18.558;2023-06-05T02:45:30;7.20;;;3.57;;
42912;SDS011;50720;54.324;18.558;2023-06-05T02:48:01;6.88;;;3.78;;
42912;SDS011;50720;54.324;18.558;2023-06-05T02:50:32;7.28;;;3.40;;
42912;SDS011;50720;54.324;18.558;2023-06-05T02:53:01;6.30;;;3.65;;
42912;SDS011;50720;54.324;18.558;2023-06-05T02:55:33;6.70;;;3.72;;
42912;SDS011;50720;54.324;18.558;2023-06-05T03:00:33;7.65;;;2.83;;
42912;SDS011;50720;54.324;18.558;2023-06-05T03:03:04;4.80;;;3.22;;
42912;SDS011;50720;54.324;18.558;2023-06-05T03:05:34;6.60;;;3.20;;
42912;SDS011;50720;54.324;18.558;2023-06-05T03:08:04;8.13;;;3.33;;
42912;SDS011;50720;54.324;18.558;2023-06-05T03:10:37;6.53;;;3.22;;
42912;SDS011;50720;54.324;18.558;2023-06-05T03:13:07;7.82;;;3.55;;
42912;SDS011;50720;54.324;18.558;2023-06-05T03:15:37;6.95;;;2.90;;
42912;SDS011;50720;54.324;18.558;2023-06-05T03:18:07;6.20;;;3.25;;
42912;SDS011;50720;54.324;18.558;2023-06-05T03:20:38;8.90;;;3.40;;
42912;SDS011;50720;54.324;18.558;2023-06-05T03:23:07;8.73;;;3.28;;
42912;SDS011;50720;54.324;18.558;2023-06-05T03:25:39;5.85;;;2.35;;
42912;SDS011;50720;54.324;18.558;2023-06-05T03:28:08;11.75;;;4.07;;
42912;SDS011;50720;54.324;18.558;2023-06-05T03:30:38;9.88;;;3.13;;
42912;SDS011;50720;54.324;18.558;2023-06-05T03:33:08;6.05;;;2.75;;
42912;SDS011;50720;54.324;18.558;2023-06-05T03:35:39;10.77;;;3.13;;
42912;SDS011;50720;54.324;18.558;2023-06-05T03:38:10;5.75;;;3.85;;
42912;SDS011;50720;54.324;18.558;2023-06-05T03:40:41;8.73;;;3.55;;
42912;SDS011;50720;54.324;18.558;2023-06-05T03:43:11;5.75;;;3.17;;
42912;SDS011;50720;54.324;18.558;2023-06-05T03:45:40;4.57;;;3.05;;
42912;SDS011;50720;54.324;18.558;2023-06-05T03:48:10;6.50;;;3.45;;
42912;SDS011;50720;54.324;18.558;2023-06-05T03:50:40;8.60;;;2.72;;
42912;SDS011;50720;54.324;18.558;2023-06-05T03:55:42;9.07;;;3.67;;
42912;SDS011;50720;54.324;18.558;2023-06-05T03:58:14;6.50;;;3.35;;
42912;SDS011;50720;54.324;18.558;2023-06-05T04:00:45;11.05;;;3.53;;
42912;SDS011;50720;54.324;18.558;2023-06-05T04:03:16;8.35;;;3.72;;
42912;SDS011;50720;54.324;18.558;2023-06-05T04:05:48;8.07;;;4.10;;
42912;SDS011;50720;54.324;18.558;2023-06-05T04:08:18;12.52;;;3.97;;
42912;SDS011;50720;54.324;18.558;2023-06-05T04:10:49;7.00;;;3.53;;
42912;SDS011;50720;54.324;18.558;2023-06-05T04:13:18;7.10;;;4.10;;
42912;SDS011;50720;54.324;18.558;2023-06-05T04:15:49;10.48;;;4.18;;
42912;SDS011;50720;54.324;18.558;2023-06-05T04:18:19;8.90;;;3.58;;
42912;SDS011;50720;54.324;18.558;2023-06-05T04:20:49;15.43;;;5.03;;
42912;SDS011;50720;54.324;18.558;2023-06-05T04:23:19;12.20;;;3.95;;
42912;SDS011;50720;54.324;18.558;2023-06-05T04:25:51;10.75;;;5.32;;
42912;SDS011;50720;54.324;18.558;2023-06-05T04:28:21;7.68;;;4.15;;
42912;SDS011;50720;54.324;18.558;2023-06-05T04:30:51;10.48;;;3.97;;
42912;SDS011;50720;54.324;18.558;2023-06-05T04:33:22;10.88;;;3.28;;
42912;SDS011;50720;54.324;18.558;2023-06-05T04:35:52;12.03;;;4.07;;
42912;SDS011;50720;54.324;18.558;2023-06-05T04:38:26;9.73;;;4.32;;
42912;SDS011;50720;54.324;18.558;2023-06-05T04:40:57;9.40;;;3.83;;
42912;SDS011;50720;54.324;18.558;2023-06-05T04:43:27;11.52;;;3.47;;
42912;SDS011;50720;54.324;18.558;2023-06-05T04:45:56;7.82;;;3.35;;
42912;SDS011;50720;54.324;18.558;2023-06-05T04:48:27;10.88;;;4.13;;
42912;SDS011;50720;54.324;18.558;2023-06-05T04:50:57;7.75;;;3.38;;
42912;SDS011;50720;54.324;18.558;2023-06-05T04:53:27;8.48;;;3.47;;
42912;SDS011;50720;54.324;18.558;2023-06-05T04:56:00;9.38;;;2.78;;
42912;SDS011;50720;54.324;18.558;2023-06-05T04:58:29;6.65;;;2.75;;
42912;SDS011;50720;54.324;18.558;2023-06-05T05:00:59;16.88;;;2.58;;
42912;SDS011;50720;54.324;18.558;2023-06-05T05:03:33;13.45;;;2.55;;
42912;SDS011;50720;54.324;18.558;2023-06-05T05:08:34;5.05;;;1.88;;
42912;SDS011;50720;54.324;18.558;2023-06-05T05:11:05;7.17;;;2.30;;
42912;SDS011;50720;54.324;18.558;2023-06-05T05:13:35;8.93;;;2.47;;
42912;SDS011;50720;54.324;18.558;2023-06-05T05:16:06;9.52;;;2.40;;
42912;SDS011;50720;54.324;18.558;2023-06-05T05:18:37;2.47;;;1.02;;
42912;SDS011;50720;54.324;18.558;2023-06-05T05:21:09;4.82;;;1.77;;
42912;SDS011;50720;54.324;18.558;2023-06-05T05:23:39;9.43;;;2.08;;
42912;SDS011;50720;54.324;18.558;2023-06-05T05:26:10;3.47;;;2.03;;
42912;SDS011;50720;54.324;18.558;2023-06-05T05:28:40;4.25;;;1.45;;
42912;SDS011;50720;54.324;18.558;2023-06-05T05:31:10;5.55;;;1.40;;
42912;SDS011;50720;54.324;18.558;2023-06-05T05:33:39;2.15;;;1.30;;
42912;SDS011;50720;54.324;18.558;2023-06-05T05:36:09;1.43;;;1.07;;
42912;SDS011;50720;54.324;18.558;2023-06-05T05:38:38;2.88;;;1.00;;
42912;SDS011;50720;54.324;18.558;2023-06-05T05:41:08;1.48;;;0.82;;
42912;SDS011;50720;54.324;18.558;2023-06-05T05:43:39;2.15;;;1.35;;
42912;SDS011;50720;54.324;18.558;2023-06-05T05:46:09;3.50;;;1.00;;
42912;SDS011;50720;54.324;18.558;2023-06-05T05:48:38;2.92;;;0.85;;
42912;SDS011;50720;54.324;18.558;2023-06-05T05:51:09;9.57;;;0.82;;
42912;SDS011;50720;54.324;18.558;2023-06-05T05:53:38;4.47;;;0.98;;
42912;SDS011;50720;54.324;18.558;2023-06-05T05:56:08;2.63;;;0.97;;
42912;SDS011;50720;54.324;18.558;2023-06-05T05:58:39;3.40;;;0.90;;
42912;SDS011;50720;54.324;18.558;2023-06-05T06:01:10;1.42;;;1.00;;
42912;SDS011;50720;54.324;18.558;2023-06-05T06:03:39;3.35;;;1.20;;
42912;SDS011;50720;54.324;18.558;2023-06-05T06:06:10;1.70;;;0.80;;
42912;SDS011;50720;54.324;18.558;2023-06-05T06:08:39;2.60;;;0.93;;
42912;SDS011;50720;54.324;18.558;2023-06-05T06:11:10;4.00;;;0.95;;
42912;SDS011;50720;54.324;18.558;2023-06-05T06:13:41;4.03;;;0.70;;
42912;SDS011;50720;54.324;18.558;2023-06-05T06:16:11;9.27;;;1.60;;
42912;SDS011;50720;54.324;18.558;2023-06-05T06:18:40;2.08;;;0.82;;
42912;SDS011;50720;54.324;18.558;2023-06-05T06:21:11;3.35;;;1.17;;
42912;SDS011;50720;54.324;18.558;2023-06-05T06:23:40;7.65;;;0.90;;
42912;SDS011;50720;54.324;18.558;2023-06-05T06:26:12;1.88;;;0.68;;
42912;SDS011;50720;54.324;18.558;2023-06-05T06:28:43;3.20;;;1.25;;
42912;SDS011;50720;54.324;18.558;2023-06-05T06:31:13;4.05;;;1.00;;
42912;SDS011;50720;54.324;18.558;2023-06-05T06:33:42;4.60;;;1.20;;
42912;SDS011;50720;54.324;18.558;2023-06-05T06:36:12;3.37;;;0.90;;
42912;SDS011;50720;54.324;18.558;2023-06-05T06:38:43;1.75;;;1.00;;
42912;SDS011;50720;54.324;18.558;2023-06-05T06:41:13;8.17;;;1.37;;
42912;SDS011;50720;54.324;18.558;2023-06-05T06:43:45;10.60;;;1.58;;
42912;SDS011;50720;54.324;18.558;2023-06-05T06:46:15;3.72;;;1.00;;
42912;SDS011;50720;54.324;18.558;2023-06-05T06:48:44;2.60;;;0.63;;
42912;SDS011;50720;54.324;18.558;2023-06-05T06:51:14;2.07;;;0.80;;
42912;SDS011;50720;54.324;18.558;2023-06-05T06:53:43;4.43;;;0.82;;
42912;SDS011;50720;54.324;18.558;2023-06-05T06:56:13;4.45;;;0.80;;
42912;SDS011;50720;54.324;18.558;2023-06-05T06:58:44;2.17;;;1.00;;
42912;SDS011;50720;54.324;18.558;2023-06-05T07:01:14;10.75;;;1.70;;
42912;SDS011;50720;54.324;18.558;2023-06-05T07:03:46;3.17;;;1.45;;
42912;SDS011;50720;54.324;18.558;2023-06-05T07:06:16;4.17;;;0.90;;
42912;SDS011;50720;54.324;18.558;2023-06-05T07:08:48;2.58;;;1.10;;
42912;SDS011;50720;54.324;18.558;2023-06-05T07:11:18;1.60;;;1.02;;
42912;SDS011;50720;54.324;18.558;2023-06-05T07:13:50;8.63;;;1.02;;
42912;SDS011;50720;54.324;18.558;2023-06-05T07:16:21;5.15;;;1.48;;
42912;SDS011;50720;54.324;18.558;2023-06-05T07:18:50;1.98;;;1.20;;
42912;SDS011;50720;54.324;18.558;2023-06-05T07:21:20;3.70;;;0.77;;
42912;SDS011;50720;54.324;18.558;2023-06-05T07:23:50;2.40;;;0.80;;
42912;SDS011;50720;54.324;18.558;2023-06-05T07:28:53;1.30;;;0.70;;
42912;SDS011;50720;54.324;18.558;2023-06-05T07:31:22;1.52;;;0.88;;
42912;SDS011;50720;54.324;18.558;2023-06-05T07:33:52;1.38;;;0.60;;
42912;SDS011;50720;54.324;18.558;2023-06-05T07:36:21;2.00;;;1.00;;
42912;SDS011;50720;54.324;18.558;2023-06-05T07:38:51;1.83;;;0.75;;
42912;SDS011;50720;54.324;18.558;2023-06-05T07:41:21;3.80;;;1.00;;
42912;SDS011;50720;54.324;18.558;2023-06-05T07:43:50;2.03;;;0.85;;
42912;SDS011;50720;54.324;18.558;2023-06-05T07:46:21;3.75;;;1.10;;
42912;SDS011;50720;54.324;18.558;2023-06-05T07:48:51;3.00;;;0.77;;
42912;SDS011;50720;54.324;18.558;2023-06-05T07:51:21;3.25;;;0.80;;
42912;SDS011;50720;54.324;18.558;2023-06-05T07:53:51;3.08;;;0.73;;
42912;SDS011;50720;54.324;18.558;2023-06-05T07:56:21;3.28;;;0.75;;
42912;SDS011;50720;54.324;18.558;2023-06-05T07:58:54;1.70;;;0.88;;
42912;SDS011;50720;54.324;18.558;2023-06-05T08:01:24;1.08;;;0.63;;
42912;SDS011;50720;54.324;18.558;2023-06-05T08:03:54;4.53;;;1.20;;
42912;SDS011;50720;54.324;18.558;2023-06-05T08:06:24;1.92;;;1.20;;
42912;SDS011;50720;54.324;18.558;2023-06-05T08:08:54;1.70;;;1.10;;
42912;SDS011;50720;54.324;18.558;2023-06-05T08:11:24;3.33;;;2.00;;
42912;SDS011;50720;54.324;18.558;2023-06-05T08:13:55;3.40;;;0.80;;
42912;SDS011;50720;54.324;18.558;2023-06-05T08:16:25;2.80;;;1.75;;
42912;SDS011;50720;54.324;18.558;2023-06-05T08:18:54;4.53;;;1.40;;
42912;SDS011;50720;54.324;18.558;2023-06-05T08:21:24;3.45;;;1.20;;
42912;SDS011;50720;54.324;18.558;2023-06-05T08:23:54;4.45;;;1.20;;
42912;SDS011;50720;54.324;18.558;2023-06-05T08:26:24;1.33;;;0.80;;
42912;SDS011;50720;54.324;18.558;2023-06-05T08:28:55;4.65;;;0.90;;
42912;SDS011;50720;54.324;18.558;2023-06-05T08:31:25;2.42;;;1.13;;
42912;SDS011;50720;54.324;18.558;2023-06-05T08:33:54;2.38;;;0.90;;
42912;SDS011;50720;54.324;18.558;2023-06-05T08:36:24;5.17;;;1.00;;
42912;SDS011;50720;54.324;18.558;2023-06-05T08:38:53;3.15;;;0.98;;
42912;SDS011;50720;54.324;18.558;2023-06-05T08:41:23;4.60;;;1.17;;
42912;SDS011;50720;54.324;18.558;2023-06-05T08:43:55;7.90;;;1.27;;
42912;SDS011;50720;54.324;18.558;2023-06-05T08:46:26;1.13;;;0.80;;
42912;SDS011;50720;54.324;18.558;2023-06-05T08:48:58;2.63;;;0.70;;
42912;SDS011;50720;54.324;18.558;2023-06-05T08:51:37;2.60;;;1.45;;
42912;SDS011;50720;54.324;18.558;2023-06-05T08:54:09;2.30;;;1.20;;
42912;SDS011;50720;54.324;18.558;2023-06-05T08:56:42;5.75;;;1.10;;
42912;SDS011;50720;54.324;18.558;2023-06-05T08:59:13;3.47;;;0.90;;
42912;SDS011;50720;54.324;18.558;2023-06-05T09:01:45;3.55;;;1.48;;
42912;SDS011;50720;54.324;18.558;2023-06-05T09:04:16;5.28;;;1.73;;
42912;SDS011;50720;54.324;18.558;2023-06-05T09:06:46;3.10;;;1.60;;
42912;SDS011;50720;54.324;18.558;2023-06-05T09:09:15;2.53;;;1.10;;
42912;SDS011;50720;54.324;18.558;2023-06-05T09:11:45;2.13;;;1.05;;
42912;SDS011;50720;54.324;18.558;2023-06-05T09:14:16;3.33;;;1.77;;
42912;SDS011;50720;54.324;18.558;2023-06-05T09:16:55;10.82;;;1.63;;
42912;SDS011;50720;54.324;18.558;2023-06-05T09:19:25;6.97;;;2.17;;
42912;SDS011;50720;54.324;18.558;2023-06-05T09:22:05;5.15;;;1.40;;
42912;SDS011;50720;54.324;18.558;2023-06-05T09:24:36;6.47;;;1.55;;
42912;SDS011;50720;54.324;18.558;2023-06-05T09:27:08;15.38;;;2.50;;
42912;SDS011;50720;54.324;18.558;2023-06-05T09:29:40;6.93;;;1.05;;
42912;SDS011;50720;54.324;18.558;2023-06-05T09:32:16;2.97;;;1.10;;
42912;SDS011;50720;54.324;18.558;2023-06-05T09:34:53;6.15;;;1.00;;
42912;SDS011;50720;54.324;18.558;2023-06-05T09:37:33;8.18;;;1.20;;
42912;SDS011;50720;54.324;18.558;2023-06-05T09:40:04;4.10;;;1.05;;
42912;SDS011;50720;54.324;18.558;2023-06-05T09:42:35;6.25;;;1.25;;
42912;SDS011;50720;54.324;18.558;2023-06-05T09:45:07;2.80;;;1.10;;
42912;SDS011;50720;54.324;18.558;2023-06-05T09:47:37;4.07;;;0.95;;
42912;SDS011;50720;54.324;18.558;2023-06-05T09:50:23;1.58;;;1.10;;
42912;SDS011;50720;54.324;18.558;2023-06-05T09:52:55;3.03;;;0.75;;
42912;SDS011;50720;54.324;18.558;2023-06-05T09:55:27;3.70;;;0.95;;
42912;SDS011;50720;54.324;18.558;2023-06-05T09:57:58;3.75;;;0.80;;
42912;SDS011;50720;54.324;18.558;2023-06-05T10:00:39;1.88;;;1.00;;
42912;SDS011;50720;54.324;18.558;2023-06-05T10:03:12;4.47;;;1.00;;
42912;SDS011;50720;54.324;18.558;2023-06-05T10:05:46;3.33;;;0.85;;
42912;SDS011;50720;54.324;18.558;2023-06-05T10:10:45;5.20;;;1.10;;
42912;SDS011;50720;54.324;18.558;2023-06-05T10:15:47;4.18;;;1.13;;
42912;SDS011;50720;54.324;18.558;2023-06-05T10:18:19;2.17;;;1.05;;
42912;SDS011;50720;54.324;18.558;2023-06-05T10:20:50;1.85;;;0.70;;
42912;SDS011;50720;54.324;18.558;2023-06-05T10:23:21;2.53;;;0.90;;
42912;SDS011;50720;54.324;18.558;2023-06-05T10:25:52;7.85;;;1.60;;
42912;SDS011;50720;54.324;18.558;2023-06-05T10:28:38;6.47;;;1.60;;
42912;SDS011;50720;54.324;18.558;2023-06-05T10:31:22;5.35;;;1.02;;
42912;SDS011;50720;54.324;18.558;2023-06-05T10:34:11;2.60;;;0.95;;
42912;SDS011;50720;54.324;18.558;2023-06-05T10:37:02;3.38;;;1.15;;
42912;SDS011;50720;54.324;18.558;2023-06-05T10:39:48;1.53;;;0.90;;
42912;SDS011;50720;54.324;18.558;2023-06-05T10:42:27;1.02;;;0.93;;
42912;SDS011;50720;54.324;18.558;2023-06-05T10:44:57;3.70;;;0.90;;
42912;SDS011;50720;54.324;18.558;2023-06-05T10:50:27;2.83;;;1.10;;
42912;SDS011;50720;54.324;18.558;2023-06-05T10:52:59;5.38;;;0.95;;
42912;SDS011;50720;54.324;18.558;2023-06-05T10:55:40;1.95;;;1.13;;
42912;SDS011;50720;54.324;18.558;2023-06-05T10:58:13;1.00;;;0.80;;
42912;SDS011;50720;54.324;18.558;2023-06-05T11:03:56;2.88;;;1.13;;
42912;SDS011;50720;54.324;18.558;2023-06-05T11:06:27;3.03;;;0.95;;
42912;SDS011;50720;54.324;18.558;2023-06-05T11:11:56;4.05;;;1.40;;
42912;SDS011;50720;54.324;18.558;2023-06-05T11:14:43;3.60;;;0.93;;
42912;SDS011;50720;54.324;18.558;2023-06-05T11:17:26;4.03;;;1.08;;
42912;SDS011;50720;54.324;18.558;2023-06-05T11:19:58;0.98;;;0.88;;
42912;SDS011;50720;54.324;18.558;2023-06-05T11:22:28;3.70;;;1.10;;
42912;SDS011;50720;54.324;18.558;2023-06-05T11:28:01;4.03;;;0.82;;
42912;SDS011;50720;54.324;18.558;2023-06-05T11:30:38;8.88;;;1.40;;
42912;SDS011;50720;54.324;18.558;2023-06-05T11:33:16;3.72;;;1.23;;
42912;SDS011;50720;54.324;18.558;2023-06-05T11:35:50;7.13;;;1.50;;
42912;SDS011;50720;54.324;18.558;2023-06-05T11:38:21;3.88;;;0.90;;
42912;SDS011;50720;54.324;18.558;2023-06-05T11:40:52;3.25;;;1.08;;
42912;SDS011;50720;54.324;18.558;2023-06-05T11:43:22;3.03;;;0.93;;
42912;SDS011;50720;54.324;18.558;2023-06-05T11:45:52;1.65;;;0.82;;
42912;SDS011;50720;54.324;18.558;2023-06-05T11:48:23;5.38;;;1.02;;
42912;SDS011;50720;54.324;18.558;2023-06-05T11:50:55;3.22;;;1.00;;
42912;SDS011;50720;54.324;18.558;2023-06-05T11:53:27;5.45;;;1.58;;
42912;SDS011;50720;54.324;18.558;2023-06-05T11:55:57;3.67;;;0.88;;
42912;SDS011;50720;54.324;18.558;2023-06-05T11:58:37;6.55;;;1.45;;
42912;SDS011;50720;54.324;18.558;2023-06-05T12:01:08;6.80;;;1.50;;
42912;SDS011;50720;54.324;18.558;2023-06-05T12:03:42;6.60;;;1.45;;
42912;SDS011;50720;54.324;18.558;2023-06-05T12:08:45;2.47;;;1.17;;
42912;SDS011;50720;54.324;18.558;2023-06-05T12:11:22;4.68;;;1.05;;
42912;SDS011;50720;54.324;18.558;2023-06-05T12:13:53;4.93;;;1.42;;
42912;SDS011;50720;54.324;18.558;2023-06-05T12:16:30;2.55;;;1.02;;
42912;SDS011;50720;54.324;18.558;2023-06-05T12:19:01;14.98;;;1.50;;
42912;SDS011;50720;54.324;18.558;2023-06-05T12:21:43;7.45;;;1.27;;
42912;SDS011;50720;54.324;18.558;2023-06-05T12:24:14;4.25;;;1.15;;
42912;SDS011;50720;54.324;18.558;2023-06-05T12:26:53;5.32;;;1.30;;
42912;SDS011;50720;54.324;18.558;2023-06-05T12:29:26;9.90;;;1.30;;
42912;SDS011;50720;54.324;18.558;2023-06-05T12:31:58;2.25;;;0.98;;
42912;SDS011;50720;54.324;18.558;2023-06-05T12:34:38;14.48;;;1.75;;
42912;SDS011;50720;54.324;18.558;2023-06-05T12:37:22;10.00;;;1.33;;
42912;SDS011;50720;54.324;18.558;2023-06-05T12:39:56;3.33;;;0.90;;
42912;SDS011;50720;54.324;18.558;2023-06-05T12:42:26;8.75;;;1.10;;
42912;SDS011;50720;54.324;18.558;2023-06-05T12:44:57;4.63;;;1.10;;
42912;SDS011;50720;54.324;18.558;2023-06-05T12:47:27;4.30;;;1.13;;
42912;SDS011;50720;54.324;18.558;2023-06-05T12:49:57;2.28;;;0.88;;
42912;SDS011;50720;54.324;18.558;2023-06-05T12:52:28;6.57;;;1.67;;
42912;SDS011;50720;54.324;18.558;2023-06-05T12:54:58;3.20;;;0.88;;
42912;SDS011;50720;54.324;18.558;2023-06-05T12:57:30;2.25;;;0.80;;
42912;SDS011;50720;54.324;18.558;2023-06-05T13:00:03;10.43;;;1.25;;
42912;SDS011;50720;54.324;18.558;2023-06-05T13:02:41;3.03;;;1.10;;
42912;SDS011;50720;54.324;18.558;2023-06-05T13:05:14;5.85;;;1.08;;
42912;SDS011;50720;54.324;18.558;2023-06-05T13:07:45;3.05;;;1.75;;
42912;SDS011;50720;54.324;18.558;2023-06-05T13:10:15;3.00;;;1.05;;
42912;SDS011;50720;54.324;18.558;2023-06-05T13:12:44;3.35;;;0.93;;
42912;SDS011;50720;54.324;18.558;2023-06-05T13:15:14;5.00;;;0.98;;
42912;SDS011;50720;54.324;18.558;2023-06-05T13:17:44;5.78;;;0.90;;
42912;SDS011;50720;54.324;18.558;2023-06-05T13:20:15;4.50;;;1.08;;
42912;SDS011;50720;54.324;18.558;2023-06-05T13:22:46;4.35;;;1.13;;
42912;SDS011;50720;54.324;18.558;2023-06-05T13:25:16;5.43;;;1.13;;
42912;SDS011;50720;54.324;18.558;2023-06-05T13:27:45;3.88;;;0.98;;
42912;SDS011;50720;54.324;18.558;2023-06-05T13:30:15;4.05;;;1.75;;
42912;SDS011;50720;54.324;18.558;2023-06-05T13:32:45;2.85;;;1.10;;
42912;SDS011;50720;54.324;18.558;2023-06-05T13:35:15;2.30;;;1.13;;
42912;SDS011;50720;54.324;18.558;2023-06-05T13:37:46;7.03;;;1.00;;
42912;SDS011;50720;54.324;18.558;2023-06-05T13:40:18;2.38;;;1.00;;
42912;SDS011;50720;54.324;18.558;2023-06-05T13:42:47;2.00;;;1.00;;
42912;SDS011;50720;54.324;18.558;2023-06-05T13:45:19;3.42;;;1.20;;
42912;SDS011;50720;54.324;18.558;2023-06-05T13:47:48;2.55;;;0.80;;
42912;SDS011;50720;54.324;18.558;2023-06-05T13:50:19;3.50;;;0.95;;
42912;SDS011;50720;54.324;18.558;2023-06-05T13:52:50;5.13;;;1.10;;
42912;SDS011;50720;54.324;18.558;2023-06-05T13:55:20;7.13;;;1.60;;
42912;SDS011;50720;54.324;18.558;2023-06-05T13:57:49;1.05;;;0.88;;
42912;SDS011;50720;54.324;18.558;2023-06-05T14:02:48;2.45;;;1.00;;
42912;SDS011;50720;54.324;18.558;2023-06-05T14:05:18;5.35;;;1.30;;
42912;SDS011;50720;54.324;18.558;2023-06-05T14:07:48;8.52;;;0.90;;
42912;SDS011;50720;54.324;18.558;2023-06-05T14:10:20;2.75;;;1.33;;
42912;SDS011;50720;54.324;18.558;2023-06-05T14:12:51;9.88;;;1.60;;
42912;SDS011;50720;54.324;18.558;2023-06-05T14:15:21;5.35;;;0.90;;
42912;SDS011;50720;54.324;18.558;2023-06-05T14:17:51;3.47;;;0.85;;
42912;SDS011;50720;54.324;18.558;2023-06-05T14:20:21;9.65;;;1.35;;
42912;SDS011;50720;54.324;18.558;2023-06-05T14:22:52;7.25;;;1.17;;
42912;SDS011;50720;54.324;18.558;2023-06-05T14:25:22;4.00;;;1.10;;
42912;SDS011;50720;54.324;18.558;2023-06-05T14:27:53;4.97;;;1.10;;
42912;SDS011;50720;54.324;18.558;2023-06-05T14:30:23;3.63;;;1.00;;
42912;SDS011;50720;54.324;18.558;2023-06-05T14:32:54;5.70;;;1.42;;
42912;SDS011;50720;54.324;18.558;2023-06-05T14:37:55;6.43;;;1.50;;
42912;SDS011;50720;54.324;18.558;2023-06-05T14:40:25;3.47;;;0.90;;
42912;SDS011;50720;54.324;18.558;2023-06-05T14:42:55;4.13;;;1.13;;
42912;SDS011;50720;54.324;18.558;2023-06-05T14:45:25;6.50;;;0.90;;
42912;SDS011;50720;54.324;18.558;2023-06-05T14:47:54;3.72;;;1.05;;
42912;SDS011;50720;54.324;18.558;2023-06-05T14:50:24;2.97;;;0.55;;
42912;SDS011;50720;54.324;18.558;2023-06-05T14:52:56;4.53;;;1.02;;
42912;SDS011;50720;54.324;18.558;2023-06-05T14:55:25;8.43;;;1.27;;
42912;SDS011;50720;54.324;18.558;2023-06-05T14:57:55;3.45;;;0.70;;
42912;SDS011;50720;54.324;18.558;2023-06-05T15:00:25;4.80;;;1.00;;
42912;SDS011;50720;54.324;18.558;2023-06-05T15:02:56;1.50;;;1.00;;
42912;SDS011;50720;54.324;18.558;2023-06-05T15:05:26;4.38;;;1.13;;
42912;SDS011;50720;54.324;18.558;2023-06-05T15:07:57;2.90;;;1.00;;
42912;SDS011;50720;54.324;18.558;2023-06-05T15:10:27;5.25;;;0.98;;
42912;SDS011;50720;54.324;18.558;2023-06-05T15:12:57;1.58;;;0.70;;
42912;SDS011;50720;54.324;18.558;2023-06-05T15:15:27;4.18;;;1.27;;
42912;SDS011;50720;54.324;18.558;2023-06-05T15:17:58;4.22;;;1.42;;
42912;SDS011;50720;54.324;18.558;2023-06-05T15:20:28;6.90;;;1.20;;
42912;SDS011;50720;54.324;18.558;2023-06-05T15:22:59;3.85;;;1.40;;
42912;SDS011;50720;54.324;18.558;2023-06-05T15:25:32;4.20;;;1.00;;
42912;SDS011;50720;54.324;18.558;2023-06-05T15:28:02;2.65;;;0.98;;
42912;SDS011;50720;54.324;18.558;2023-06-05T15:30:32;3.47;;;0.75;;
42912;SDS011;50720;54.324;18.558;2023-06-05T15:33:01;4.88;;;0.85;;
42912;SDS011;50720;54.324;18.558;2023-06-05T15:35:31;2.33;;;0.80;;
42912;SDS011;50720;54.324;18.558;2023-06-05T15:38:02;4.45;;;1.08;;